Search for airport 
image banner adimage banner adimage banner ad
image banner ad

L72 - Trona

Located in Trona, United States

ICAO - L72, IATA -

Data provided by Airmate  

General information

Coordinates: N35°48'46" W117°19'37"
Elevation is 1718 feet MSL.
Magnetic variation is 14° East
View others Airports in California

Operational data

Special qualification required
Current time UTC:
Current local time:
METAR: KNID 210856Z AUTO 21004KT 10SM CLR 29/M01 A2978 RMK AO2 SLP054 T02891006 56002 $
View NOTAMs / SUP AIP / TFR affecting this airport [VIEW]
Communications frequencies: [VIEW]

Runways:

RWY identifierQFULength (ft)Width (ft)SurfaceLDA (ft)
17189°591060ASPH
35591060ASPH

Airport contact information

Address: Trona United States

Satellite view of L72